sensor_id;sensor_type;location;lat;lon;timestamp;P1;durP1;ratioP1;P2;durP2;ratioP2
11823;SDS011;5969;50.780;7.726;2024-01-16T00:01:16;9.43;;;7.13;;
11823;SDS011;5969;50.780;7.726;2024-01-16T00:03:45;9.52;;;7.28;;
11823;SDS011;5969;50.780;7.726;2024-01-16T00:06:12;11.07;;;7.47;;
11823;SDS011;5969;50.780;7.726;2024-01-16T00:08:39;10.55;;;7.55;;
11823;SDS011;5969;50.780;7.726;2024-01-16T00:11:06;9.50;;;7.65;;
11823;SDS011;5969;50.780;7.726;2024-01-16T00:13:35;10.18;;;7.50;;
11823;SDS011;5969;50.780;7.726;2024-01-16T00:16:03;13.98;;;7.60;;
11823;SDS011;5969;50.780;7.726;2024-01-16T00:18:30;12.18;;;8.23;;
11823;SDS011;5969;50.780;7.726;2024-01-16T00:20:57;9.10;;;7.90;;
11823;SDS011;5969;50.780;7.726;2024-01-16T00:23:24;9.07;;;8.15;;
11823;SDS011;5969;50.780;7.726;2024-01-16T00:25:52;13.10;;;7.90;;
11823;SDS011;5969;50.780;7.726;2024-01-16T00:28:19;9.35;;;8.10;;
11823;SDS011;5969;50.780;7.726;2024-01-16T00:30:47;13.70;;;8.25;;
11823;SDS011;5969;50.780;7.726;2024-01-16T00:33:15;12.98;;;8.10;;
11823;SDS011;5969;50.780;7.726;2024-01-16T00:35:42;14.38;;;8.70;;
11823;SDS011;5969;50.780;7.726;2024-01-16T00:38:09;9.57;;;7.45;;
11823;SDS011;5969;50.780;7.726;2024-01-16T00:40:36;9.63;;;8.15;;
11823;SDS011;5969;50.780;7.726;2024-01-16T00:43:03;11.52;;;8.32;;
11823;SDS011;5969;50.780;7.726;2024-01-16T00:45:31;11.75;;;8.50;;
11823;SDS011;5969;50.780;7.726;2024-01-16T00:48:03;14.13;;;8.48;;
11823;SDS011;5969;50.780;7.726;2024-01-16T00:50:31;12.25;;;9.02;;
11823;SDS011;5969;50.780;7.726;2024-01-16T00:52:58;10.77;;;8.63;;
11823;SDS011;5969;50.780;7.726;2024-01-16T00:55:25;10.00;;;7.93;;
11823;SDS011;5969;50.780;7.726;2024-01-16T00:57:52;11.20;;;8.02;;
11823;SDS011;5969;50.780;7.726;2024-01-16T01:00:20;10.32;;;7.78;;
11823;SDS011;5969;50.780;7.726;2024-01-16T01:02:47;10.05;;;8.02;;
11823;SDS011;5969;50.780;7.726;2024-01-16T01:05:16;12.77;;;7.45;;
11823;SDS011;5969;50.780;7.726;2024-01-16T01:07:43;8.52;;;7.05;;
11823;SDS011;5969;50.780;7.726;2024-01-16T01:10:10;8.15;;;7.00;;
11823;SDS011;5969;50.780;7.726;2024-01-16T01:12:37;10.60;;;7.63;;
11823;SDS011;5969;50.780;7.726;2024-01-16T01:15:05;9.75;;;7.00;;
11823;SDS011;5969;50.780;7.726;2024-01-16T01:17:32;8.73;;;7.80;;
11823;SDS011;5969;50.780;7.726;2024-01-16T01:20:00;10.82;;;7.75;;
11823;SDS011;5969;50.780;7.726;2024-01-16T01:22:29;13.32;;;7.72;;
11823;SDS011;5969;50.780;7.726;2024-01-16T01:24:57;10.35;;;8.85;;
11823;SDS011;5969;50.780;7.726;2024-01-16T01:27:24;12.40;;;9.07;;
11823;SDS011;5969;50.780;7.726;2024-01-16T01:29:51;9.85;;;8.75;;
11823;SDS011;5969;50.780;7.726;2024-01-16T01:32:18;11.90;;;9.05;;
11823;SDS011;5969;50.780;7.726;2024-01-16T01:34:46;12.45;;;9.23;;
11823;SDS011;5969;50.780;7.726;2024-01-16T01:37:13;11.82;;;8.82;;
11823;SDS011;5969;50.780;7.726;2024-01-16T01:39:41;12.75;;;8.98;;
11823;SDS011;5969;50.780;7.726;2024-01-16T01:42:09;14.00;;;9.52;;
11823;SDS011;5969;50.780;7.726;2024-01-16T01:44:36;10.35;;;8.48;;
11823;SDS011;5969;50.780;7.726;2024-01-16T01:47:05;13.73;;;9.57;;
11823;SDS011;5969;50.780;7.726;2024-01-16T01:49:32;15.15;;;9.88;;
11823;SDS011;5969;50.780;7.726;2024-01-16T01:51:59;13.23;;;9.43;;
11823;SDS011;5969;50.780;7.726;2024-01-16T01:54:26;11.13;;;8.73;;
11823;SDS011;5969;50.780;7.726;2024-01-16T01:56:55;10.88;;;9.20;;
11823;SDS011;5969;50.780;7.726;2024-01-16T01:59:23;13.93;;;9.55;;
11823;SDS011;5969;50.780;7.726;2024-01-16T02:01:51;11.07;;;8.93;;
11823;SDS011;5969;50.780;7.726;2024-01-16T02:04:19;16.02;;;9.75;;
11823;SDS011;5969;50.780;7.726;2024-01-16T02:06:46;17.58;;;9.80;;
11823;SDS011;5969;50.780;7.726;2024-01-16T02:09:13;13.95;;;9.70;;
11823;SDS011;5969;50.780;7.726;2024-01-16T02:11:40;11.88;;;9.88;;
11823;SDS011;5969;50.780;7.726;2024-01-16T02:14:09;11.23;;;10.05;;
11823;SDS011;5969;50.780;7.726;2024-01-16T02:16:37;17.63;;;9.70;;
11823;SDS011;5969;50.780;7.726;2024-01-16T02:19:05;12.60;;;9.50;;
11823;SDS011;5969;50.780;7.726;2024-01-16T02:21:35;14.18;;;9.70;;
11823;SDS011;5969;50.780;7.726;2024-01-16T02:24:05;14.15;;;9.52;;
11823;SDS011;5969;50.780;7.726;2024-01-16T02:26:35;11.50;;;9.45;;
11823;SDS011;5969;50.780;7.726;2024-01-16T02:29:09;15.45;;;9.98;;
11823;SDS011;5969;50.780;7.726;2024-01-16T02:31:36;17.20;;;9.82;;
11823;SDS011;5969;50.780;7.726;2024-01-16T02:34:03;13.65;;;8.98;;
11823;SDS011;5969;50.780;7.726;2024-01-16T02:36:31;9.90;;;8.90;;
11823;SDS011;5969;50.780;7.726;2024-01-16T02:38:58;11.65;;;9.07;;
11823;SDS011;5969;50.780;7.726;2024-01-16T02:41:26;11.48;;;8.60;;
11823;SDS011;5969;50.780;7.726;2024-01-16T02:43:54;10.18;;;8.13;;
11823;SDS011;5969;50.780;7.726;2024-01-16T02:46:21;9.77;;;8.25;;
11823;SDS011;5969;50.780;7.726;2024-01-16T02:48:48;10.18;;;8.07;;
11823;SDS011;5969;50.780;7.726;2024-01-16T02:51:16;9.23;;;8.25;;
11823;SDS011;5969;50.780;7.726;2024-01-16T02:53:43;9.57;;;8.65;;
11823;SDS011;5969;50.780;7.726;2024-01-16T02:56:10;11.32;;;7.95;;
11823;SDS011;5969;50.780;7.726;2024-01-16T02:58:38;12.98;;;8.80;;
11823;SDS011;5969;50.780;7.726;2024-01-16T03:01:09;12.07;;;8.07;;
11823;SDS011;5969;50.780;7.726;2024-01-16T03:03:36;12.48;;;9.25;;
11823;SDS011;5969;50.780;7.726;2024-01-16T03:06:04;10.00;;;8.95;;
11823;SDS011;5969;50.780;7.726;2024-01-16T03:08:32;9.90;;;8.55;;
11823;SDS011;5969;50.780;7.726;2024-01-16T03:10:59;11.80;;;8.30;;
11823;SDS011;5969;50.780;7.726;2024-01-16T03:13:26;13.18;;;8.60;;
11823;SDS011;5969;50.780;7.726;2024-01-16T03:15:55;12.07;;;8.38;;
11823;SDS011;5969;50.780;7.726;2024-01-16T03:18:22;9.82;;;8.30;;
11823;SDS011;5969;50.780;7.726;2024-01-16T03:21:10;14.40;;;8.25;;
11823;SDS011;5969;50.780;7.726;2024-01-16T03:23:38;10.52;;;8.60;;
11823;SDS011;5969;50.780;7.726;2024-01-16T03:26:05;10.43;;;7.93;;
11823;SDS011;5969;50.780;7.726;2024-01-16T03:28:32;13.10;;;8.63;;
11823;SDS011;5969;50.780;7.726;2024-01-16T03:31:01;11.50;;;8.13;;
11823;SDS011;5969;50.780;7.726;2024-01-16T03:33:28;9.25;;;8.32;;
11823;SDS011;5969;50.780;7.726;2024-01-16T03:35:55;9.68;;;8.70;;
11823;SDS011;5969;50.780;7.726;2024-01-16T03:38:23;10.45;;;8.20;;
11823;SDS011;5969;50.780;7.726;2024-01-16T03:40:50;12.93;;;8.68;;
11823;SDS011;5969;50.780;7.726;2024-01-16T03:43:17;10.65;;;8.20;;
11823;SDS011;5969;50.780;7.726;2024-01-16T03:45:44;11.07;;;9.05;;
11823;SDS011;5969;50.780;7.726;2024-01-16T03:48:12;11.05;;;8.98;;
11823;SDS011;5969;50.780;7.726;2024-01-16T03:50:39;14.02;;;9.63;;
11823;SDS011;5969;50.780;7.726;2024-01-16T03:53:11;10.73;;;8.88;;
11823;SDS011;5969;50.780;7.726;2024-01-16T03:55:38;12.85;;;9.35;;
11823;SDS011;5969;50.780;7.726;2024-01-16T03:58:06;13.95;;;9.57;;
11823;SDS011;5969;50.780;7.726;2024-01-16T04:00:33;12.57;;;9.55;;
11823;SDS011;5969;50.780;7.726;2024-01-16T04:03:00;13.07;;;9.95;;
11823;SDS011;5969;50.780;7.726;2024-01-16T04:05:29;10.98;;;9.65;;
11823;SDS011;5969;50.780;7.726;2024-01-16T04:07:58;12.23;;;9.70;;
11823;SDS011;5969;50.780;7.726;2024-01-16T04:10:25;10.55;;;9.48;;
11823;SDS011;5969;50.780;7.726;2024-01-16T04:12:52;11.40;;;9.23;;
11823;SDS011;5969;50.780;7.726;2024-01-16T04:15:19;11.55;;;9.10;;
11823;SDS011;5969;50.780;7.726;2024-01-16T04:17:47;11.35;;;9.35;;
11823;SDS011;5969;50.780;7.726;2024-01-16T04:20:17;9.10;;;8.20;;
11823;SDS011;5969;50.780;7.726;2024-01-16T04:22:45;11.82;;;9.23;;
11823;SDS011;5969;50.780;7.726;2024-01-16T04:25:13;11.65;;;8.40;;
11823;SDS011;5969;50.780;7.726;2024-01-16T04:27:40;11.63;;;9.50;;
11823;SDS011;5969;50.780;7.726;2024-01-16T04:30:08;13.88;;;9.20;;
11823;SDS011;5969;50.780;7.726;2024-01-16T04:32:35;10.88;;;8.43;;
11823;SDS011;5969;50.780;7.726;2024-01-16T04:35:02;11.82;;;8.40;;
11823;SDS011;5969;50.780;7.726;2024-01-16T04:37:29;9.77;;;8.57;;
11823;SDS011;5969;50.780;7.726;2024-01-16T04:39:58;9.70;;;8.60;;
11823;SDS011;5969;50.780;7.726;2024-01-16T04:42:25;11.55;;;8.55;;
11823;SDS011;5969;50.780;7.726;2024-01-16T04:44:54;12.25;;;8.60;;
11823;SDS011;5969;50.780;7.726;2024-01-16T04:47:21;12.43;;;9.07;;
11823;SDS011;5969;50.780;7.726;2024-01-16T04:49:48;14.18;;;9.07;;
11823;SDS011;5969;50.780;7.726;2024-01-16T04:52:15;10.93;;;9.00;;
11823;SDS011;5969;50.780;7.726;2024-01-16T04:54:42;13.80;;;9.73;;
11823;SDS011;5969;50.780;7.726;2024-01-16T04:57:12;11.77;;;9.27;;
11823;SDS011;5969;50.780;7.726;2024-01-16T04:59:39;10.52;;;8.60;;
11823;SDS011;5969;50.780;7.726;2024-01-16T05:02:06;8.80;;;7.20;;
11823;SDS011;5969;50.780;7.726;2024-01-16T05:04:36;10.20;;;9.15;;
11823;SDS011;5969;50.780;7.726;2024-01-16T05:07:04;12.52;;;8.63;;
11823;SDS011;5969;50.780;7.726;2024-01-16T05:09:31;9.52;;;8.45;;
11823;SDS011;5969;50.780;7.726;2024-01-16T05:11:58;11.88;;;8.30;;
11823;SDS011;5969;50.780;7.726;2024-01-16T05:14:27;11.43;;;8.02;;
11823;SDS011;5969;50.780;7.726;2024-01-16T05:16:54;11.48;;;8.88;;
11823;SDS011;5969;50.780;7.726;2024-01-16T05:19:21;10.45;;;8.65;;
11823;SDS011;5969;50.780;7.726;2024-01-16T05:21:48;10.65;;;8.05;;
11823;SDS011;5969;50.780;7.726;2024-01-16T05:24:16;15.15;;;9.15;;
11823;SDS011;5969;50.780;7.726;2024-01-16T05:26:43;13.13;;;9.02;;
11823;SDS011;5969;50.780;7.726;2024-01-16T05:29:11;9.68;;;8.32;;
11823;SDS011;5969;50.780;7.726;2024-01-16T05:31:40;10.65;;;9.13;;
11823;SDS011;5969;50.780;7.726;2024-01-16T05:34:11;13.23;;;8.88;;
11823;SDS011;5969;50.780;7.726;2024-01-16T05:36:38;10.10;;;9.10;;
11823;SDS011;5969;50.780;7.726;2024-01-16T05:39:06;13.57;;;8.48;;
11823;SDS011;5969;50.780;7.726;2024-01-16T05:41:34;12.45;;;8.50;;
11823;SDS011;5969;50.780;7.726;2024-01-16T05:44:02;12.52;;;8.07;;
11823;SDS011;5969;50.780;7.726;2024-01-16T05:46:30;11.23;;;8.30;;
11823;SDS011;5969;50.780;7.726;2024-01-16T05:48:59;9.05;;;7.88;;
11823;SDS011;5969;50.780;7.726;2024-01-16T05:51:26;9.40;;;7.40;;
11823;SDS011;5969;50.780;7.726;2024-01-16T05:53:54;9.45;;;7.43;;
11823;SDS011;5969;50.780;7.726;2024-01-16T05:56:21;10.45;;;7.70;;
11823;SDS011;5969;50.780;7.726;2024-01-16T05:58:48;10.25;;;8.15;;
11823;SDS011;5969;50.780;7.726;2024-01-16T06:01:17;12.38;;;8.13;;
11823;SDS011;5969;50.780;7.726;2024-01-16T06:03:44;11.20;;;7.78;;
11823;SDS011;5969;50.780;7.726;2024-01-16T06:06:15;10.45;;;7.13;;
11823;SDS011;5969;50.780;7.726;2024-01-16T06:08:42;9.70;;;7.05;;
11823;SDS011;5969;50.780;7.726;2024-01-16T06:11:09;9.73;;;6.78;;
11823;SDS011;5969;50.780;7.726;2024-01-16T06:13:37;9.38;;;7.30;;
11823;SDS011;5969;50.780;7.726;2024-01-16T06:16:08;8.63;;;7.15;;
11823;SDS011;5969;50.780;7.726;2024-01-16T06:18:48;11.50;;;7.32;;
11823;SDS011;5969;50.780;7.726;2024-01-16T06:24:24;10.90;;;7.35;;
11823;SDS011;5969;50.780;7.726;2024-01-16T06:27:04;8.13;;;6.53;;
11823;SDS011;5969;50.780;7.726;2024-01-16T06:29:34;11.15;;;6.45;;
11823;SDS011;5969;50.780;7.726;2024-01-16T06:32:01;10.52;;;6.88;;
11823;SDS011;5969;50.780;7.726;2024-01-16T06:34:29;8.25;;;5.95;;
11823;SDS011;5969;50.780;7.726;2024-01-16T06:36:56;7.90;;;5.65;;
11823;SDS011;5969;50.780;7.726;2024-01-16T06:39:25;8.38;;;6.00;;
11823;SDS011;5969;50.780;7.726;2024-01-16T06:41:52;8.07;;;5.72;;
11823;SDS011;5969;50.780;7.726;2024-01-16T06:44:19;11.90;;;5.93;;
11823;SDS011;5969;50.780;7.726;2024-01-16T06:46:47;9.18;;;6.47;;
11823;SDS011;5969;50.780;7.726;2024-01-16T06:49:14;9.43;;;6.38;;
11823;SDS011;5969;50.780;7.726;2024-01-16T06:51:41;11.25;;;6.85;;
11823;SDS011;5969;50.780;7.726;2024-01-16T06:54:08;11.73;;;6.20;;
11823;SDS011;5969;50.780;7.726;2024-01-16T06:56:39;9.93;;;5.93;;
11823;SDS011;5969;50.780;7.726;2024-01-16T06:59:06;8.45;;;5.90;;
11823;SDS011;5969;50.780;7.726;2024-01-16T07:01:33;9.57;;;5.70;;
11823;SDS011;5969;50.780;7.726;2024-01-16T07:04:00;7.47;;;5.13;;
11823;SDS011;5969;50.780;7.726;2024-01-16T07:06:28;11.23;;;5.32;;
11823;SDS011;5969;50.780;7.726;2024-01-16T07:08:55;8.93;;;5.53;;
11823;SDS011;5969;50.780;7.726;2024-01-16T07:11:23;9.32;;;5.30;;
11823;SDS011;5969;50.780;7.726;2024-01-16T07:13:52;9.02;;;5.57;;
11823;SDS011;5969;50.780;7.726;2024-01-16T07:16:19;9.00;;;5.70;;
11823;SDS011;5969;50.780;7.726;2024-01-16T07:18:46;8.18;;;5.45;;
11823;SDS011;5969;50.780;7.726;2024-01-16T07:21:17;7.82;;;5.18;;
11823;SDS011;5969;50.780;7.726;2024-01-16T07:23:44;12.18;;;5.40;;
11823;SDS011;5969;50.780;7.726;2024-01-16T07:26:11;7.40;;;5.20;;
11823;SDS011;5969;50.780;7.726;2024-01-16T07:28:38;7.68;;;5.00;;
11823;SDS011;5969;50.780;7.726;2024-01-16T07:31:07;8.38;;;4.82;;
11823;SDS011;5969;50.780;7.726;2024-01-16T07:33:47;6.22;;;4.32;;
11823;SDS011;5969;50.780;7.726;2024-01-16T07:36:16;9.32;;;4.85;;
11823;SDS011;5969;50.780;7.726;2024-01-16T07:38:43;6.93;;;4.82;;
11823;SDS011;5969;50.780;7.726;2024-01-16T07:41:10;13.50;;;5.07;;
11823;SDS011;5969;50.780;7.726;2024-01-16T07:43:40;7.97;;;4.88;;
11823;SDS011;5969;50.780;7.726;2024-01-16T07:46:09;9.45;;;5.43;;
11823;SDS011;5969;50.780;7.726;2024-01-16T07:48:36;25.08;;;14.30;;
11823;SDS011;5969;50.780;7.726;2024-01-16T07:51:05;10.70;;;6.25;;
11823;SDS011;5969;50.780;7.726;2024-01-16T07:53:32;15.73;;;7.82;;
11823;SDS011;5969;50.780;7.726;2024-01-16T07:55:59;10.55;;;7.22;;
11823;SDS011;5969;50.780;7.726;2024-01-16T07:58:29;9.45;;;5.60;;
11823;SDS011;5969;50.780;7.726;2024-01-16T08:00:57;10.38;;;5.75;;
11823;SDS011;5969;50.780;7.726;2024-01-16T08:03:26;9.90;;;5.05;;
11823;SDS011;5969;50.780;7.726;2024-01-16T08:05:56;7.80;;;4.68;;
11823;SDS011;5969;50.780;7.726;2024-01-16T08:08:26;9.30;;;4.90;;
11823;SDS011;5969;50.780;7.726;2024-01-16T08:10:53;5.40;;;4.28;;
11823;SDS011;5969;50.780;7.726;2024-01-16T08:13:21;6.93;;;4.15;;
11823;SDS011;5969;50.780;7.726;2024-01-16T08:15:49;6.55;;;4.85;;
11823;SDS011;5969;50.780;7.726;2024-01-16T08:18:16;11.07;;;5.00;;
11823;SDS011;5969;50.780;7.726;2024-01-16T08:20:45;5.32;;;4.57;;
11823;SDS011;5969;50.780;7.726;2024-01-16T08:23:16;6.55;;;4.80;;
11823;SDS011;5969;50.780;7.726;2024-01-16T08:25:43;13.25;;;8.98;;
11823;SDS011;5969;50.780;7.726;2024-01-16T08:28:11;8.35;;;6.45;;
11823;SDS011;5969;50.780;7.726;2024-01-16T08:30:39;9.68;;;5.90;;
11823;SDS011;5969;50.780;7.726;2024-01-16T08:33:06;10.02;;;4.80;;
11823;SDS011;5969;50.780;7.726;2024-01-16T08:35:34;6.15;;;4.20;;
11823;SDS011;5969;50.780;7.726;2024-01-16T08:38:02;7.55;;;3.88;;
11823;SDS011;5969;50.780;7.726;2024-01-16T08:40:32;4.95;;;3.28;;
11823;SDS011;5969;50.780;7.726;2024-01-16T08:42:59;5.75;;;3.28;;
11823;SDS011;5969;50.780;7.726;2024-01-16T08:47:59;6.65;;;3.90;;
11823;SDS011;5969;50.780;7.726;2024-01-16T08:50:32;7.20;;;3.78;;
11823;SDS011;5969;50.780;7.726;2024-01-16T08:53:06;7.28;;;2.95;;
11823;SDS011;5969;50.780;7.726;2024-01-16T08:55:41;6.07;;;4.15;;
11823;SDS011;5969;50.780;7.726;2024-01-16T08:58:14;9.25;;;3.50;;
11823;SDS011;5969;50.780;7.726;2024-01-16T09:00:43;8.40;;;2.88;;
11823;SDS011;5969;50.780;7.726;2024-01-16T09:03:16;4.28;;;2.88;;
11823;SDS011;5969;50.780;7.726;2024-01-16T09:05:46;5.55;;;2.88;;
11823;SDS011;5969;50.780;7.726;2024-01-16T09:08:14;5.60;;;2.75;;
11823;SDS011;5969;50.780;7.726;2024-01-16T09:10:45;5.88;;;3.08;;
11823;SDS011;5969;50.780;7.726;2024-01-16T09:13:17;9.20;;;4.07;;
11823;SDS011;5969;50.780;7.726;2024-01-16T09:15:48;7.22;;;3.25;;
11823;SDS011;5969;50.780;7.726;2024-01-16T09:18:19;4.28;;;2.95;;
11823;SDS011;5969;50.780;7.726;2024-01-16T09:20:56;4.63;;;2.60;;
11823;SDS011;5969;50.780;7.726;2024-01-16T09:23:24;6.30;;;2.58;;
11823;SDS011;5969;50.780;7.726;2024-01-16T09:25:52;11.30;;;3.00;;
11823;SDS011;5969;50.780;7.726;2024-01-16T09:28:23;6.30;;;2.80;;
11823;SDS011;5969;50.780;7.726;2024-01-16T09:30:57;7.90;;;3.72;;
11823;SDS011;5969;50.780;7.726;2024-01-16T09:33:27;5.72;;;3.08;;
11823;SDS011;5969;50.780;7.726;2024-01-16T09:36:00;8.13;;;3.67;;
11823;SDS011;5969;50.780;7.726;2024-01-16T09:38:31;5.78;;;3.90;;
11823;SDS011;5969;50.780;7.726;2024-01-16T09:40:59;4.78;;;2.83;;
11823;SDS011;5969;50.780;7.726;2024-01-16T09:43:28;6.70;;;3.15;;
11823;SDS011;5969;50.780;7.726;2024-01-16T09:46:00;7.82;;;2.55;;
11823;SDS011;5969;50.780;7.726;2024-01-16T09:48:27;8.07;;;3.78;;
11823;SDS011;5969;50.780;7.726;2024-01-16T09:50:58;7.65;;;2.78;;
11823;SDS011;5969;50.780;7.726;2024-01-16T09:53:28;7.95;;;2.40;;
11823;SDS011;5969;50.780;7.726;2024-01-16T09:56:04;3.92;;;2.45;;
11823;SDS011;5969;50.780;7.726;2024-01-16T09:58:36;7.68;;;2.63;;
11823;SDS011;5969;50.780;7.726;2024-01-16T10:01:08;6.53;;;3.30;;
11823;SDS011;5969;50.780;7.726;2024-01-16T10:03:39;5.75;;;2.17;;
11823;SDS011;5969;50.780;7.726;2024-01-16T10:06:08;4.53;;;2.25;;
11823;SDS011;5969;50.780;7.726;2024-01-16T10:08:38;4.60;;;2.42;;
11823;SDS011;5969;50.780;7.726;2024-01-16T10:11:08;5.93;;;2.95;;
11823;SDS011;5969;50.780;7.726;2024-01-16T10:13:38;8.02;;;3.30;;
11823;SDS011;5969;50.780;7.726;2024-01-16T10:16:09;9.25;;;3.83;;
11823;SDS011;5969;50.780;7.726;2024-01-16T10:18:40;6.93;;;3.17;;
11823;SDS011;5969;50.780;7.726;2024-01-16T10:21:19;6.80;;;2.40;;
11823;SDS011;5969;50.780;7.726;2024-01-16T10:23:48;5.03;;;2.10;;
11823;SDS011;5969;50.780;7.726;2024-01-16T10:26:16;4.00;;;1.92;;
11823;SDS011;5969;50.780;7.726;2024-01-16T10:28:46;5.22;;;1.90;;
11823;SDS011;5969;50.780;7.726;2024-01-16T10:31:13;5.32;;;2.10;;
11823;SDS011;5969;50.780;7.726;2024-01-16T10:33:41;5.13;;;1.83;;
11823;SDS011;5969;50.780;7.726;2024-01-16T10:36:09;4.20;;;2.05;;
11823;SDS011;5969;50.780;7.726;2024-01-16T10:38:36;7.22;;;2.50;;
11823;SDS011;5969;50.780;7.726;2024-01-16T10:41:05;5.47;;;1.98;;
11823;SDS011;5969;50.780;7.726;2024-01-16T10:43:37;4.70;;;1.73;;
11823;SDS011;5969;50.780;7.726;2024-01-16T10:46:08;6.45;;;1.95;;
11823;SDS011;5969;50.780;7.726;2024-01-16T10:48:37;4.10;;;2.08;;
11823;SDS011;5969;50.780;7.726;2024-01-16T10:51:05;7.63;;;2.28;;
11823;SDS011;5969;50.780;7.726;2024-01-16T10:53:34;3.40;;;1.98;;
11823;SDS011;5969;50.780;7.726;2024-01-16T11:03:50;3.00;;;1.85;;
11823;SDS011;5969;50.780;7.726;2024-01-16T11:06:21;6.88;;;2.30;;
11823;SDS011;5969;50.780;7.726;2024-01-16T11:08:49;4.38;;;2.03;;
11823;SDS011;5969;50.780;7.726;2024-01-16T11:11:16;4.53;;;2.10;;
11823;SDS011;5969;50.780;7.726;2024-01-16T11:13:45;5.65;;;2.20;;
11823;SDS011;5969;50.780;7.726;2024-01-16T11:16:12;4.47;;;2.10;;
11823;SDS011;5969;50.780;7.726;2024-01-16T11:18:41;5.10;;;2.30;;
11823;SDS011;5969;50.780;7.726;2024-01-16T11:21:10;2.58;;;1.75;;
11823;SDS011;5969;50.780;7.726;2024-01-16T11:23:38;4.95;;;2.35;;
11823;SDS011;5969;50.780;7.726;2024-01-16T11:28:53;3.88;;;2.03;;
11823;SDS011;5969;50.780;7.726;2024-01-16T11:31:28;4.72;;;2.17;;
11823;SDS011;5969;50.780;7.726;2024-01-16T11:33:56;4.28;;;2.15;;
11823;SDS011;5969;50.780;7.726;2024-01-16T11:39:26;8.45;;;2.50;;
11823;SDS011;5969;50.780;7.726;2024-01-16T11:41:54;5.65;;;2.25;;
11823;SDS011;5969;50.780;7.726;2024-01-16T11:47:15;5.68;;;2.47;;
11823;SDS011;5969;50.780;7.726;2024-01-16T11:49:43;3.58;;;1.98;;
11823;SDS011;5969;50.780;7.726;2024-01-16T11:52:10;3.50;;;2.25;;
11823;SDS011;5969;50.780;7.726;2024-01-16T11:54:40;3.35;;;2.05;;
11823;SDS011;5969;50.780;7.726;2024-01-16T11:57:12;5.50;;;2.25;;
11823;SDS011;5969;50.780;7.726;2024-01-16T12:00:00;4.68;;;1.70;;
11823;SDS011;5969;50.780;7.726;2024-01-16T12:02:38;6.13;;;2.00;;
11823;SDS011;5969;50.780;7.726;2024-01-16T12:05:11;3.88;;;1.90;;
11823;SDS011;5969;50.780;7.726;2024-01-16T12:07:47;5.60;;;2.20;;
11823;SDS011;5969;50.780;7.726;2024-01-16T12:10:20;6.93;;;2.03;;
11823;SDS011;5969;50.780;7.726;2024-01-16T12:12:48;6.93;;;1.92;;
11823;SDS011;5969;50.780;7.726;2024-01-16T12:15:17;3.53;;;1.75;;
11823;SDS011;5969;50.780;7.726;2024-01-16T12:17:55;8.40;;;1.92;;
11823;SDS011;5969;50.780;7.726;2024-01-16T12:20:23;7.63;;;2.10;;
11823;SDS011;5969;50.780;7.726;2024-01-16T12:22:54;5.95;;;2.05;;
11823;SDS011;5969;50.780;7.726;2024-01-16T12:25:23;4.35;;;1.50;;
11823;SDS011;5969;50.780;7.726;2024-01-16T12:27:58;5.57;;;2.10;;
11823;SDS011;5969;50.780;7.726;2024-01-16T12:30:32;5.28;;;1.80;;
11823;SDS011;5969;50.780;7.726;2024-01-16T12:33:04;4.57;;;1.75;;
11823;SDS011;5969;50.780;7.726;2024-01-16T12:35:33;7.65;;;2.25;;
11823;SDS011;5969;50.780;7.726;2024-01-16T12:38:04;4.78;;;1.92;;
11823;SDS011;5969;50.780;7.726;2024-01-16T12:40:39;4.32;;;1.90;;
11823;SDS011;5969;50.780;7.726;2024-01-16T12:43:07;3.30;;;2.13;;
11823;SDS011;5969;50.780;7.726;2024-01-16T12:45:35;6.30;;;2.20;;
11823;SDS011;5969;50.780;7.726;2024-01-16T12:48:03;7.55;;;1.92;;
11823;SDS011;5969;50.780;7.726;2024-01-16T12:50:32;3.80;;;2.05;;
11823;SDS011;5969;50.780;7.726;2024-01-16T12:53:04;4.47;;;1.90;;
11823;SDS011;5969;50.780;7.726;2024-01-16T12:55:32;7.63;;;2.65;;
11823;SDS011;5969;50.780;7.726;2024-01-16T12:58:17;6.35;;;2.17;;
11823;SDS011;5969;50.780;7.726;2024-01-16T13:00:46;5.65;;;2.33;;
11823;SDS011;5969;50.780;7.726;2024-01-16T13:03:16;4.55;;;2.08;;
11823;SDS011;5969;50.780;7.726;2024-01-16T13:05:44;5.05;;;2.25;;
11823;SDS011;5969;50.780;7.726;2024-01-16T13:08:23;6.22;;;2.20;;
11823;SDS011;5969;50.780;7.726;2024-01-16T13:11:02;4.28;;;2.00;;
11823;SDS011;5969;50.780;7.726;2024-01-16T13:13:34;3.92;;;1.95;;
11823;SDS011;5969;50.780;7.726;2024-01-16T13:16:04;5.95;;;2.25;;
11823;SDS011;5969;50.780;7.726;2024-01-16T13:18:34;6.10;;;2.35;;
11823;SDS011;5969;50.780;7.726;2024-01-16T13:21:05;5.72;;;2.00;;
11823;SDS011;5969;50.780;7.726;2024-01-16T13:23:32;5.40;;;2.20;;
11823;SDS011;5969;50.780;7.726;2024-01-16T13:26:00;6.68;;;2.17;;
11823;SDS011;5969;50.780;7.726;2024-01-16T13:28:32;5.53;;;2.50;;
11823;SDS011;5969;50.780;7.726;2024-01-16T13:30:59;4.97;;;1.88;;
11823;SDS011;5969;50.780;7.726;2024-01-16T13:33:29;4.45;;;2.03;;
11823;SDS011;5969;50.780;7.726;2024-01-16T13:35:57;6.18;;;2.25;;
11823;SDS011;5969;50.780;7.726;2024-01-16T13:38:24;8.40;;;2.22;;
11823;SDS011;5969;50.780;7.726;2024-01-16T13:40:51;6.40;;;2.17;;
11823;SDS011;5969;50.780;7.726;2024-01-16T13:43:18;4.93;;;1.90;;
11823;SDS011;5969;50.780;7.726;2024-01-16T13:45:47;5.38;;;1.98;;
11823;SDS011;5969;50.780;7.726;2024-01-16T13:48:16;4.50;;;1.90;;
11823;SDS011;5969;50.780;7.726;2024-01-16T13:50:44;3.65;;;2.33;;
11823;SDS011;5969;50.780;7.726;2024-01-16T13:53:11;3.67;;;2.15;;
11823;SDS011;5969;50.780;7.726;2024-01-16T13:55:39;4.80;;;2.13;;
11823;SDS011;5969;50.780;7.726;2024-01-16T13:58:12;4.57;;;2.00;;
11823;SDS011;5969;50.780;7.726;2024-01-16T14:00:43;6.07;;;1.90;;
11823;SDS011;5969;50.780;7.726;2024-01-16T14:03:21;4.15;;;2.30;;
11823;SDS011;5969;50.780;7.726;2024-01-16T14:05:51;6.68;;;2.35;;
11823;SDS011;5969;50.780;7.726;2024-01-16T14:11:05;2.63;;;1.80;;
11823;SDS011;5969;50.780;7.726;2024-01-16T14:13:32;5.70;;;2.25;;
11823;SDS011;5969;50.780;7.726;2024-01-16T14:16:02;6.22;;;2.40;;
11823;SDS011;5969;50.780;7.726;2024-01-16T14:18:31;4.55;;;2.15;;
11823;SDS011;5969;50.780;7.726;2024-01-16T14:20:58;5.57;;;2.38;;
11823;SDS011;5969;50.780;7.726;2024-01-16T14:23:25;4.43;;;2.03;;
11823;SDS011;5969;50.780;7.726;2024-01-16T14:25:55;6.50;;;2.45;;
11823;SDS011;5969;50.780;7.726;2024-01-16T14:28:26;5.90;;;2.38;;
11823;SDS011;5969;50.780;7.726;2024-01-16T14:30:53;6.38;;;2.53;;
11823;SDS011;5969;50.780;7.726;2024-01-16T14:33:21;3.45;;;2.40;;
11823;SDS011;5969;50.780;7.726;2024-01-16T14:35:55;7.78;;;2.42;;
11823;SDS011;5969;50.780;7.726;2024-01-16T14:38:25;6.72;;;3.00;;
11823;SDS011;5969;50.780;7.726;2024-01-16T14:40:58;5.13;;;2.83;;
11823;SDS011;5969;50.780;7.726;2024-01-16T14:43:34;3.88;;;2.63;;
11823;SDS011;5969;50.780;7.726;2024-01-16T14:46:05;4.63;;;2.80;;
11823;SDS011;5969;50.780;7.726;2024-01-16T14:52:01;8.93;;;4.38;;
11823;SDS011;5969;50.780;7.726;2024-01-16T14:54:39;7.63;;;3.88;;
11823;SDS011;5969;50.780;7.726;2024-01-16T14:57:27;8.27;;;4.22;;
11823;SDS011;5969;50.780;7.726;2024-01-16T15:03:17;7.85;;;2.75;;
11823;SDS011;5969;50.780;7.726;2024-01-16T15:06:16;6.05;;;3.13;;
11823;SDS011;5969;50.780;7.726;2024-01-16T15:08:48;6.53;;;2.55;;
11823;SDS011;5969;50.780;7.726;2024-01-16T15:11:31;6.18;;;2.75;;
11823;SDS011;5969;50.780;7.726;2024-01-16T15:14:00;5.20;;;3.00;;
11823;SDS011;5969;50.780;7.726;2024-01-16T15:16:27;5.45;;;2.95;;
11823;SDS011;5969;50.780;7.726;2024-01-16T15:18:57;4.10;;;3.10;;
11823;SDS011;5969;50.780;7.726;2024-01-16T15:21:24;6.80;;;2.83;;
11823;SDS011;5969;50.780;7.726;2024-01-16T15:23:53;7.53;;;2.92;;
11823;SDS011;5969;50.780;7.726;2024-01-16T15:26:20;5.07;;;2.50;;
11823;SDS011;5969;50.780;7.726;2024-01-16T15:28:48;5.93;;;2.58;;
11823;SDS011;5969;50.780;7.726;2024-01-16T15:31:16;4.03;;;2.65;;
11823;SDS011;5969;50.780;7.726;2024-01-16T15:33:46;4.38;;;2.35;;
11823;SDS011;5969;50.780;7.726;2024-01-16T15:36:16;5.63;;;2.70;;
11823;SDS011;5969;50.780;7.726;2024-01-16T15:38:44;7.28;;;2.90;;